createdAt,value
2017-12-20T00:00:13.450Z,96.83
2017-12-20T00:02:41.817Z,96.91
2017-12-20T00:05:10.251Z,96.65
2017-12-20T00:07:38.627Z,96.29
2017-12-20T00:10:06.948Z,95.90
2017-12-20T00:12:35.282Z,95.88
2017-12-20T00:15:03.618Z,95.75
2017-12-20T00:17:32.015Z,95.60
2017-12-20T00:20:00.509Z,95.92
2017-12-20T00:22:28.881Z,95.99
2017-12-20T00:24:57.260Z,95.96
2017-12-20T00:27:25.638Z,96.06
2017-12-20T00:29:53.963Z,95.97
2017-12-20T00:32:22.303Z,95.96
2017-12-20T00:34:50.341Z,95.78
2017-12-20T00:37:18.402Z,95.66
2017-12-20T00:39:46.438Z,95.67
2017-12-20T00:42:14.879Z,95.94
2017-12-20T00:44:43.198Z,95.99
2017-12-20T00:47:11.538Z,95.75
2017-12-20T00:49:39.854Z,95.64
2017-12-20T00:52:08.198Z,95.76
2017-12-20T00:54:36.515Z,95.88
2017-12-20T00:57:04.853Z,96.07
2017-12-20T00:59:33.194Z,95.97
2017-12-20T01:02:01.515Z,96.10
2017-12-20T01:04:29.921Z,96.18
2017-12-20T01:06:58.236Z,96.18
2017-12-20T01:09:26.577Z,96.23
2017-12-20T01:11:54.900Z,96.22
2017-12-20T01:14:23.238Z,95.97
2017-12-20T01:16:51.558Z,95.74
2017-12-20T01:19:19.919Z,95.72
2017-12-20T01:21:48.238Z,95.47
2017-12-20T01:24:16.583Z,95.33
2017-12-20T01:26:44.894Z,95.40
2017-12-20T01:29:13.234Z,95.47
2017-12-20T01:31:41.554Z,95.80
2017-12-20T01:34:09.977Z,95.90
2017-12-20T01:36:38.294Z,95.94
2017-12-20T01:39:06.738Z,96.07
2017-12-20T01:41:35.150Z,96.29
2017-12-20T01:44:03.469Z,96.39
2017-12-20T01:46:31.865Z,96.50
2017-12-20T01:49:00.238Z,96.34
2017-12-20T01:51:28.562Z,96.50
2017-12-20T01:53:56.902Z,96.50
2017-12-20T01:56:25.274Z,96.65
2017-12-20T01:58:53.610Z,96.76
2017-12-20T02:01:21.936Z,96.85
2017-12-20T02:03:50.322Z,96.91
2017-12-20T02:06:18.642Z,97.05
2017-12-20T02:08:46.982Z,96.76
2017-12-20T02:11:15.334Z,96.64
2017-12-20T02:13:43.708Z,96.58
2017-12-20T02:16:12.024Z,96.79
2017-12-20T02:18:40.422Z,96.60
2017-12-20T02:21:08.772Z,96.75
2017-12-20T02:23:37.115Z,96.74
2017-12-20T02:26:05.430Z,96.70
2017-12-20T02:28:33.771Z,96.47
2017-12-20T02:31:02.143Z,96.50
2017-12-20T02:33:31.364Z,96.48
2017-12-20T02:35:59.728Z,96.57
2017-12-20T02:38:37.922Z,96.51
2017-12-20T02:41:06.247Z,96.69
2017-12-20T02:43:34.588Z,96.80
2017-12-20T02:46:02.923Z,96.83
2017-12-20T02:48:31.261Z,96.83
2017-12-20T02:50:59.602Z,96.67
2017-12-20T02:53:27.938Z,96.75
2017-12-20T02:55:56.399Z,96.73
2017-12-20T02:58:24.737Z,96.69
2017-12-20T03:00:53.114Z,96.90
2017-12-20T03:03:21.446Z,96.98
2017-12-20T03:05:49.777Z,97.03
2017-12-20T03:08:18.095Z,97.34
2017-12-20T03:10:46.421Z,97.29
2017-12-20T03:13:14.770Z,97.54
2017-12-20T03:15:43.103Z,97.56
2017-12-20T03:18:11.424Z,97.64
2017-12-20T03:20:39.754Z,97.55
2017-12-20T03:23:08.104Z,97.43
2017-12-20T03:25:36.510Z,97.34
2017-12-20T03:28:04.854Z,97.24
2017-12-20T03:30:33.191Z,97.13
2017-12-20T03:33:01.535Z,97.12
2017-12-20T03:35:29.925Z,97.36
2017-12-20T03:37:58.231Z,97.47
2017-12-20T03:40:26.643Z,97.62
2017-12-20T03:42:55.018Z,97.73
2017-12-20T03:45:23.354Z,97.50
2017-12-20T03:47:51.674Z,97.23
2017-12-20T03:50:20.006Z,97.33
2017-12-20T03:52:48.318Z,97.55
2017-12-20T03:55:16.698Z,97.91
2017-12-20T03:57:45.006Z,98.04
2017-12-20T04:00:13.346Z,98.11
2017-12-20T04:02:41.807Z,98.49
2017-12-20T04:05:10.086Z,98.61
2017-12-20T04:07:38.416Z,98.67
2017-12-20T04:10:06.815Z,98.82
2017-12-20T04:12:35.110Z,99.01
2017-12-20T04:15:03.529Z,99.25
2017-12-20T04:17:31.890Z,99.22
2017-12-20T04:20:00.266Z,99.31
2017-12-20T04:22:28.624Z,99.44
2017-12-20T04:24:57.027Z,99.62
2017-12-20T04:27:25.338Z,99.64
2017-12-20T04:29:53.774Z,99.74
2017-12-20T04:32:22.087Z,99.69
2017-12-20T04:34:50.431Z,99.67
2017-12-20T04:37:18.803Z,99.75
2017-12-20T04:39:47.186Z,99.77
2017-12-20T04:42:15.490Z,99.76
2017-12-20T04:44:43.839Z,99.83
2017-12-20T04:47:12.142Z,99.76
2017-12-20T04:49:40.473Z,99.82
2017-12-20T04:52:08.794Z,99.80
2017-12-20T04:54:37.142Z,99.76
2017-12-20T04:57:05.459Z,99.62
2017-12-20T04:59:33.889Z,99.64
2017-12-20T05:02:02.197Z,99.56
2017-12-20T05:04:30.534Z,99.44
2017-12-20T05:06:58.846Z,99.37
2017-12-20T05:09:27.193Z,99.30
2017-12-20T05:11:55.610Z,99.19
2017-12-20T05:14:23.924Z,99.20
2017-12-20T05:16:52.364Z,99.14
2017-12-20T05:19:20.637Z,99.14
2017-12-20T05:21:49.104Z,99.05
2017-12-20T05:24:17.504Z,99.07
2017-12-20T05:26:45.939Z,98.98
2017-12-20T05:29:14.322Z,98.94
2017-12-20T05:31:42.676Z,99.03
2017-12-20T05:34:10.986Z,99.06
2017-12-20T05:36:39.326Z,98.82
2017-12-20T05:39:07.662Z,98.67
2017-12-20T05:41:36.103Z,98.68
2017-12-20T05:44:04.411Z,98.61
2017-12-20T05:46:32.746Z,98.57
2017-12-20T05:49:01.130Z,98.57
2017-12-20T05:51:29.492Z,98.66
2017-12-20T05:53:57.802Z,98.74
2017-12-20T05:56:26.142Z,98.83
2017-12-20T05:58:54.470Z,99.02
2017-12-20T06:01:22.874Z,98.93
2017-12-20T06:03:51.196Z,99.01
2017-12-20T06:06:19.531Z,98.83
2017-12-20T06:08:47.919Z,98.76
2017-12-20T06:11:16.289Z,98.99
2017-12-20T06:13:44.643Z,98.91
2017-12-20T06:16:13.078Z,99.00
2017-12-20T06:18:41.459Z,99.03
2017-12-20T06:21:09.840Z,98.89
2017-12-20T06:23:38.212Z,99.01
2017-12-20T06:26:06.590Z,99.16
2017-12-20T06:28:34.915Z,99.10
2017-12-20T06:31:03.327Z,99.15
2017-12-20T06:33:31.681Z,98.96
2017-12-20T06:36:00.078Z,98.76
2017-12-20T06:38:28.489Z,98.54
2017-12-20T06:40:56.851Z,98.41
2017-12-20T06:43:25.217Z,98.37
2017-12-20T06:45:53.688Z,98.17
2017-12-20T06:48:22.061Z,98.24
2017-12-20T06:50:50.470Z,98.25
2017-12-20T06:53:18.815Z,98.11
2017-12-20T06:55:47.163Z,97.85
2017-12-20T06:58:15.487Z,97.69
2017-12-20T07:00:43.830Z,97.55
2017-12-20T07:03:12.158Z,97.46
2017-12-20T07:05:40.508Z,97.61
2017-12-20T07:08:08.835Z,97.83
2017-12-20T07:10:37.236Z,98.00
2017-12-20T07:13:05.589Z,97.99
2017-12-20T07:15:33.923Z,98.10
2017-12-20T07:18:02.276Z,98.05
2017-12-20T07:20:30.622Z,97.92
2017-12-20T07:22:59.020Z,97.84
2017-12-20T07:25:27.343Z,97.79
2017-12-20T07:27:55.694Z,97.80
2017-12-20T07:30:24.032Z,97.86
2017-12-20T07:32:52.371Z,97.81
2017-12-20T07:35:20.698Z,97.71
2017-12-20T07:37:49.039Z,97.67
2017-12-20T07:40:17.361Z,97.56
2017-12-20T07:42:45.703Z,97.63
2017-12-20T07:45:14.022Z,97.79
2017-12-20T07:47:42.360Z,97.74
2017-12-20T07:50:10.686Z,97.58
2017-12-20T07:52:39.027Z,97.70
2017-12-20T07:55:07.343Z,97.82
2017-12-20T07:57:35.683Z,97.89
2017-12-20T08:00:04.020Z,97.92
2017-12-20T08:02:32.366Z,97.98
2017-12-20T08:05:00.702Z,97.98
2017-12-20T08:07:29.059Z,97.89
2017-12-20T08:09:57.374Z,98.10
2017-12-20T08:12:25.718Z,98.12
2017-12-20T08:14:54.530Z,97.86
2017-12-20T08:17:22.874Z,97.75
2017-12-20T08:19:51.194Z,97.74
2017-12-20T08:22:19.539Z,97.79
2017-12-20T08:24:47.853Z,97.69
2017-12-20T08:27:16.199Z,97.56
2017-12-20T08:29:44.538Z,97.46
2017-12-20T08:32:12.895Z,97.47
2017-12-20T08:34:41.319Z,97.58
2017-12-20T08:37:09.662Z,97.46
2017-12-20T08:39:37.986Z,97.33
2017-12-20T08:42:06.330Z,97.33
2017-12-20T08:44:34.653Z,97.37
2017-12-20T08:47:02.999Z,97.59
2017-12-20T08:49:31.325Z,97.58
2017-12-20T08:51:59.966Z,97.58
2017-12-20T08:54:29.050Z,97.55
2017-12-20T08:56:57.390Z,97.73
2017-12-20T08:59:25.715Z,99.69
2017-12-20T09:01:54.077Z,99.52
2017-12-20T09:04:22.397Z,97.11
2017-12-20T09:06:50.744Z,95.15
2017-12-20T09:09:19.055Z,94.51
2017-12-20T09:11:47.420Z,94.54
2017-12-20T09:14:15.791Z,94.55
2017-12-20T09:16:44.466Z,94.99
2017-12-20T09:19:12.907Z,95.11
2017-12-20T09:21:41.284Z,95.52
2017-12-20T09:24:09.667Z,95.92
2017-12-20T09:26:38.046Z,96.05
2017-12-20T09:29:06.449Z,96.31
2017-12-20T09:31:34.844Z,96.77
2017-12-20T09:34:03.271Z,97.04
2017-12-20T09:36:31.717Z,97.02
2017-12-20T09:39:00.194Z,97.17
2017-12-20T09:41:28.571Z,97.41
2017-12-20T09:43:57.007Z,97.35
2017-12-20T09:46:25.387Z,97.56
2017-12-20T09:48:53.755Z,97.77
2017-12-20T09:51:22.285Z,97.90
2017-12-20T09:53:50.734Z,97.91
2017-12-20T09:56:19.094Z,97.98
2017-12-20T09:58:47.467Z,97.95
2017-12-20T10:01:16.137Z,98.02
2017-12-20T10:03:44.761Z,98.43
2017-12-20T10:06:14.773Z,98.45
2017-12-20T10:08:43.108Z,98.30
2017-12-20T10:11:11.443Z,98.07
2017-12-20T10:13:39.795Z,98.23
2017-12-20T10:16:08.123Z,98.55
2017-12-20T10:18:36.470Z,98.61
2017-12-20T10:21:04.786Z,98.51
2017-12-20T10:23:33.129Z,98.74
2017-12-20T10:26:01.453Z,98.66
2017-12-20T10:28:29.811Z,98.54
2017-12-20T10:30:58.135Z,98.36
2017-12-20T10:33:26.488Z,98.03
2017-12-20T10:35:54.804Z,98.22
2017-12-20T10:38:23.142Z,98.29
2017-12-20T10:40:51.475Z,98.51
2017-12-20T10:43:20.665Z,98.55
2017-12-20T10:45:48.989Z,98.31
2017-12-20T10:48:17.346Z,98.09
2017-12-20T10:50:45.671Z,98.02
2017-12-20T10:53:14.358Z,97.98
2017-12-20T10:55:42.684Z,98.02
2017-12-20T10:58:11.027Z,97.92
2017-12-20T11:00:39.350Z,97.94
2017-12-20T11:03:07.695Z,97.59
2017-12-20T11:05:36.022Z,97.54
2017-12-20T11:08:04.366Z,97.52
2017-12-20T11:10:32.690Z,97.37
2017-12-20T11:13:01.596Z,97.32
2017-12-20T11:15:29.910Z,97.39
2017-12-20T11:17:58.270Z,97.60
2017-12-20T11:20:26.589Z,97.62
2017-12-20T11:22:55.904Z,97.65
2017-12-20T11:25:24.255Z,97.81
2017-12-20T11:27:52.586Z,97.63
2017-12-20T11:30:20.935Z,97.53
2017-12-20T11:32:49.259Z,97.23
2017-12-20T11:35:17.602Z,97.09
2017-12-20T11:37:45.931Z,97.18
2017-12-20T11:40:14.269Z,96.95
2017-12-20T11:42:42.594Z,96.97
2017-12-20T11:45:10.954Z,96.73
2017-12-20T11:47:39.279Z,96.82
2017-12-20T11:50:07.622Z,98.67
2017-12-20T11:52:35.947Z,97.98
2017-12-20T11:55:04.302Z,94.80
2017-12-20T11:57:32.626Z,93.20
2017-12-20T12:00:00.991Z,93.03
2017-12-20T12:02:29.314Z,95.96
2017-12-20T12:04:57.678Z,96.97
2017-12-20T12:07:26.012Z,95.18
2017-12-20T12:09:54.381Z,91.40
2017-12-20T12:12:22.722Z,88.77
2017-12-20T12:14:51.070Z,86.09
2017-12-20T12:17:19.397Z,83.19
2017-12-20T12:19:47.753Z,85.56
2017-12-20T12:22:16.075Z,87.97
2017-12-20T12:24:44.422Z,89.38
2017-12-20T12:27:12.755Z,90.13
2017-12-20T12:29:51.989Z,91.74
2017-12-20T12:32:33.023Z,93.61
2017-12-20T12:35:01.397Z,94.31
2017-12-20T12:37:29.719Z,94.92
2017-12-20T12:39:58.965Z,95.57
2017-12-20T12:42:27.428Z,96.00
2017-12-20T12:44:55.778Z,96.20
2017-12-20T12:47:24.116Z,96.73
2017-12-20T12:49:52.475Z,97.22
2017-12-20T12:52:20.821Z,97.71
2017-12-20T12:54:49.199Z,97.86
2017-12-20T12:57:17.526Z,97.67
2017-12-20T12:59:45.861Z,97.65
2017-12-20T13:02:14.206Z,97.76
2017-12-20T13:04:42.543Z,97.99
2017-12-20T13:07:10.897Z,98.08
2017-12-20T13:09:39.222Z,97.90
2017-12-20T13:12:07.578Z,98.05
2017-12-20T13:14:35.915Z,98.39
2017-12-20T13:17:05.078Z,98.43
2017-12-20T13:19:33.421Z,98.48
2017-12-20T13:22:02.475Z,98.66
2017-12-20T13:24:30.797Z,98.78
2017-12-20T13:26:59.667Z,98.83
2017-12-20T13:29:27.990Z,98.70
2017-12-20T13:31:56.346Z,98.81
2017-12-20T13:34:24.684Z,98.80
2017-12-20T13:36:53.042Z,98.72
2017-12-20T13:39:21.370Z,98.88
2017-12-20T13:41:49.722Z,98.95
2017-12-20T13:44:18.049Z,98.65
2017-12-20T13:46:47.411Z,98.33
2017-12-20T13:49:15.758Z,98.03
2017-12-20T13:51:44.210Z,97.81
2017-12-20T13:54:12.631Z,98.00
2017-12-20T13:56:40.978Z,98.15
2017-12-20T13:59:09.387Z,98.14
2017-12-20T14:01:37.797Z,97.99
2017-12-20T14:04:06.310Z,97.76
2017-12-20T14:06:35.402Z,97.63
2017-12-20T14:09:03.739Z,97.68
2017-12-20T14:11:33.023Z,98.05
2017-12-20T14:14:01.401Z,97.92
2017-12-20T14:16:29.750Z,98.04
2017-12-20T14:18:58.154Z,97.84
2017-12-20T14:21:26.535Z,98.04
2017-12-20T14:23:56.008Z,98.11
2017-12-20T14:26:24.557Z,98.24
2017-12-20T14:28:53.575Z,98.28
2017-12-20T14:31:22.935Z,98.08
2017-12-20T14:33:51.541Z,97.96
2017-12-20T14:36:19.894Z,98.00
2017-12-20T14:38:48.250Z,97.99
2017-12-20T14:41:16.979Z,98.40
2017-12-20T14:43:45.450Z,98.69
2017-12-20T14:46:13.911Z,99.01
2017-12-20T14:48:42.264Z,98.85
2017-12-20T14:51:10.595Z,98.62
2017-12-20T14:53:38.942Z,98.54
2017-12-20T14:56:07.295Z,98.51
2017-12-20T14:58:35.649Z,98.68
2017-12-20T15:01:03.981Z,98.70
2017-12-20T15:03:32.387Z,98.69
2017-12-20T15:06:00.728Z,98.79
2017-12-20T15:08:29.149Z,99.00
2017-12-20T15:10:57.482Z,99.00
2017-12-20T15:13:25.859Z,99.27
2017-12-20T15:15:54.231Z,99.36
2017-12-20T15:18:22.618Z,99.35
2017-12-20T15:20:50.959Z,99.33
2017-12-20T15:23:19.314Z,99.31
2017-12-20T15:25:48.754Z,99.24
2017-12-20T15:28:18.021Z,99.03
2017-12-20T15:30:47.135Z,98.95
2017-12-20T15:33:15.543Z,98.78
2017-12-20T15:35:43.882Z,98.60
2017-12-20T15:38:12.236Z,98.49
2017-12-20T15:40:40.608Z,98.44
2017-12-20T15:43:08.968Z,98.69
2017-12-20T15:45:37.295Z,98.61
2017-12-20T15:48:05.646Z,98.49
2017-12-20T15:50:34.037Z,99.80
2017-12-20T15:53:02.418Z,98.82
2017-12-20T15:55:30.793Z,98.10
2017-12-20T15:57:59.142Z,98.01
2017-12-20T16:00:29.658Z,97.80
2017-12-20T16:02:58.038Z,97.85
2017-12-20T16:05:26.371Z,97.98
2017-12-20T16:07:54.747Z,98.15
2017-12-20T16:10:23.861Z,98.35
2017-12-20T16:12:52.214Z,98.63
2017-12-20T16:15:20.550Z,98.59
2017-12-20T16:17:48.893Z,98.55
2017-12-20T16:20:17.243Z,98.60
2017-12-20T16:22:45.588Z,98.52
2017-12-20T16:25:13.910Z,98.38
2017-12-20T16:27:42.242Z,98.56
2017-12-20T16:30:10.590Z,98.27
2017-12-20T16:32:38.922Z,98.38
2017-12-20T16:35:07.278Z,98.30
2017-12-20T16:37:35.615Z,98.04
2017-12-20T16:40:03.981Z,98.15
2017-12-20T16:42:32.314Z,98.13
2017-12-20T16:45:00.799Z,98.37
2017-12-20T16:47:29.130Z,98.68
2017-12-20T16:49:57.478Z,98.77
2017-12-20T16:52:25.802Z,98.92
2017-12-20T16:54:54.150Z,99.09
2017-12-20T16:57:22.478Z,99.08
2017-12-20T16:59:50.826Z,99.25
2017-12-20T17:02:19.451Z,99.13
2017-12-20T17:04:47.888Z,99.29
2017-12-20T17:07:16.210Z,99.62
2017-12-20T17:09:44.566Z,100.00
2017-12-20T17:12:12.902Z,100.00
2017-12-20T17:14:41.263Z,100.00
2017-12-20T17:17:09.598Z,100.00
2017-12-20T17:19:37.950Z,100.00
2017-12-20T17:22:06.287Z,100.00
2017-12-20T17:24:34.641Z,100.00
2017-12-20T17:27:02.974Z,100.00
2017-12-20T17:29:31.329Z,100.00
2017-12-20T17:31:59.661Z,100.00
2017-12-20T17:34:28.025Z,100.00
2017-12-20T17:36:56.362Z,100.00
2017-12-20T17:39:24.723Z,100.00
2017-12-20T17:41:53.074Z,100.00
2017-12-20T17:44:21.436Z,100.00
2017-12-20T17:46:49.758Z,100.00
2017-12-20T17:49:18.839Z,99.90
2017-12-20T17:51:47.170Z,99.66
2017-12-20T17:54:15.531Z,99.55
2017-12-20T17:56:43.858Z,99.70
2017-12-20T17:59:12.198Z,99.69
2017-12-20T18:01:40.525Z,99.81
2017-12-20T18:04:08.879Z,99.97
2017-12-20T18:06:37.214Z,99.89
2017-12-20T18:09:06.434Z,99.76
2017-12-20T18:11:34.762Z,99.66
2017-12-20T18:14:03.124Z,99.65
2017-12-20T18:16:31.554Z,99.45
2017-12-20T18:18:59.883Z,99.50
2017-12-20T18:21:28.227Z,99.58
2017-12-20T18:23:56.580Z,99.54
2017-12-20T18:26:24.902Z,99.55
2017-12-20T18:28:54.086Z,99.49
2017-12-20T18:31:22.418Z,99.57
2017-12-20T18:33:50.807Z,99.85
2017-12-20T18:36:19.292Z,100.00
2017-12-20T18:38:47.652Z,100.00
2017-12-20T18:41:16.010Z,100.00
2017-12-20T18:43:44.344Z,100.00
2017-12-20T18:46:12.698Z,100.00
2017-12-20T18:48:41.107Z,100.00
2017-12-20T18:51:09.490Z,100.00
2017-12-20T18:53:37.829Z,100.00
2017-12-20T18:56:07.198Z,100.00
2017-12-20T18:58:35.533Z,100.00
2017-12-20T19:01:03.887Z,100.00
2017-12-20T19:03:32.221Z,100.00
2017-12-20T19:06:00.585Z,100.00
2017-12-20T19:08:28.920Z,100.00
2017-12-20T19:10:57.279Z,100.00
2017-12-20T19:13:25.610Z,100.00
2017-12-20T19:15:53.970Z,100.00
2017-12-20T19:18:22.316Z,100.00
2017-12-20T19:20:50.665Z,100.00
2017-12-20T19:23:18.993Z,100.00
2017-12-20T19:25:49.086Z,100.00
2017-12-20T19:28:17.445Z,100.00
2017-12-20T19:30:45.778Z,100.00
2017-12-20T19:33:14.114Z,100.00
2017-12-20T19:35:43.448Z,100.00
2017-12-20T19:38:11.783Z,100.00
2017-12-20T19:40:40.135Z,100.00
2017-12-20T19:43:08.474Z,100.00
2017-12-20T19:45:36.874Z,100.00
2017-12-20T19:48:05.211Z,100.00
2017-12-20T19:50:33.558Z,100.00
2017-12-20T19:53:01.996Z,100.00
2017-12-20T19:55:30.491Z,100.00
2017-12-20T19:57:58.834Z,100.00
2017-12-20T20:00:27.221Z,100.00
2017-12-20T20:02:55.566Z,100.00
2017-12-20T20:05:23.967Z,100.00
2017-12-20T20:07:52.320Z,100.00
2017-12-20T20:10:20.692Z,100.00
2017-12-20T20:12:49.025Z,100.00
2017-12-20T20:15:17.378Z,100.00
2017-12-20T20:17:46.338Z,100.00
2017-12-20T20:20:14.690Z,100.00
2017-12-20T20:22:43.067Z,100.00
2017-12-20T20:25:12.278Z,100.00
2017-12-20T20:27:40.740Z,100.00
2017-12-20T20:30:09.978Z,100.00
2017-12-20T20:32:38.306Z,100.00
2017-12-20T20:35:06.683Z,100.00
2017-12-20T20:37:35.011Z,100.00
2017-12-20T20:40:03.350Z,100.00
2017-12-20T20:42:31.713Z,100.00
2017-12-20T20:45:00.047Z,100.00
2017-12-20T20:47:28.409Z,100.00
2017-12-20T20:49:59.742Z,100.00
2017-12-20T20:52:31.126Z,100.00
2017-12-20T20:54:59.458Z,100.00
2017-12-20T20:57:27.816Z,100.00
2017-12-20T20:59:56.151Z,100.00
2017-12-20T21:02:24.506Z,100.00
2017-12-20T21:04:52.838Z,100.00
2017-12-20T21:07:21.210Z,100.00
2017-12-20T21:09:49.530Z,100.00
2017-12-20T21:12:18.015Z,100.00
2017-12-20T21:14:47.396Z,100.00
2017-12-20T21:17:15.802Z,100.00
2017-12-20T21:19:44.744Z,100.00
2017-12-20T21:22:13.134Z,100.00
2017-12-20T21:24:41.674Z,100.00
2017-12-20T21:27:10.239Z,100.00
2017-12-20T21:29:38.698Z,100.00
2017-12-20T21:32:07.066Z,100.00
2017-12-20T21:34:35.405Z,100.00
2017-12-20T21:37:03.935Z,100.00
2017-12-20T21:39:32.363Z,100.00
2017-12-20T21:42:00.779Z,100.00
2017-12-20T21:44:29.115Z,100.00
2017-12-20T21:46:57.472Z,100.00
2017-12-20T21:49:25.802Z,100.00
2017-12-20T21:51:54.163Z,100.00
2017-12-20T21:54:22.541Z,100.00
2017-12-20T21:56:50.900Z,100.00
2017-12-20T21:59:19.237Z,100.00
2017-12-20T22:01:47.590Z,100.00
2017-12-20T22:04:15.979Z,100.00
2017-12-20T22:06:44.324Z,100.00
2017-12-20T22:09:12.661Z,100.00
2017-12-20T22:11:41.042Z,100.00
2017-12-20T22:14:09.379Z,100.00
2017-12-20T22:16:37.806Z,100.00
2017-12-20T22:19:06.229Z,100.00
2017-12-20T22:21:34.595Z,100.00
2017-12-20T22:24:02.926Z,100.00
2017-12-20T22:26:31.283Z,100.00
2017-12-20T22:28:59.619Z,100.00
2017-12-20T22:31:28.549Z,100.00
2017-12-20T22:33:56.883Z,100.00
2017-12-20T22:36:25.233Z,100.00
2017-12-20T22:38:53.569Z,100.00
2017-12-20T22:41:22.659Z,100.00
2017-12-20T22:43:51.051Z,100.00
2017-12-20T22:46:19.438Z,100.00
2017-12-20T22:48:47.778Z,100.00
2017-12-20T22:51:16.110Z,100.00
2017-12-20T22:53:44.471Z,100.00
2017-12-20T22:56:12.801Z,100.00
2017-12-20T22:58:41.160Z,100.00
2017-12-20T23:01:09.496Z,100.00
2017-12-20T23:03:37.843Z,100.00
2017-12-20T23:06:07.158Z,100.00
2017-12-20T23:08:35.510Z,100.00
2017-12-20T23:11:03.851Z,100.00
2017-12-20T23:13:32.265Z,100.00
2017-12-20T23:16:00.598Z,100.00
2017-12-20T23:21:08.406Z,100.00
2017-12-20T23:23:36.821Z,100.00
2017-12-20T23:26:05.159Z,100.00
2017-12-20T23:28:33.514Z,100.00
2017-12-20T23:31:01.849Z,100.00
2017-12-20T23:33:30.201Z,100.00
2017-12-20T23:35:58.539Z,100.00
2017-12-20T23:38:27.835Z,100.00
2017-12-20T23:40:56.399Z,100.00
2017-12-20T23:43:25.066Z,100.00
2017-12-20T23:45:55.307Z,100.00
2017-12-20T23:48:23.662Z,100.00
2017-12-20T23:50:51.998Z,100.00
2017-12-20T23:53:20.354Z,100.00
2017-12-20T23:55:48.681Z,100.00
2017-12-20T23:58:17.035Z,100.00
